Time;durP1;ratioP1;P1;durP2;ratioP2;P2;SDS_P1;SDS_P2;PMS_P1;PMS_P2;Temp;Humidity;BMP_temperature;BMP_pressure;BME280_temperature;BME280_humidity;BME280_pressure;Samples;Min_cycle;Max_cycle;Signal;HPM_P1;HPM_P2
2023/03/06 00:01:18;;;;;;;2.47;1.20;;;;;;;4.56;100.00;100195.75;5074058;28;20054;-78
2023/03/06 00:03:43;;;;;;;7.40;1.40;;;;;;;4.56;100.00;100192.28;5064380;28;20451;-78
2023/03/06 00:06:09;;;;;;;3.42;1.20;;;;;;;4.56;100.00;100190.50;5083860;28;20048;-78
2023/03/06 00:08:35;;;;;;;2.67;1.15;;;;;;;4.54;100.00;100192.41;5080820;28;20543;-79
2023/03/06 00:11:01;;;;;;;2.45;1.23;;;;;;;4.54;100.00;100189.78;5078953;28;20054;-78
2023/03/06 00:13:28;;;;;;;2.92;1.10;;;;;;;4.52;100.00;100186.47;5087292;28;20468;-78
2023/03/06 00:15:58;;;;;;;2.60;0.90;;;;;;;4.55;100.00;100183.63;5081383;28;20041;-78
2023/03/06 00:18:24;;;;;;;5.53;1.33;;;;;;;4.54;100.00;100183.72;5077192;28;20120;-78
2023/03/06 00:20:50;;;;;;;1.80;1.20;;;;;;;4.54;100.00;100183.72;5075468;28;20027;-78
2023/03/06 00:23:16;;;;;;;3.35;1.40;;;;;;;4.56;100.00;100177.44;5079033;28;20549;-78
2023/03/06 00:25:43;;;;;;;7.32;1.33;;;;;;;4.61;100.00;100173.63;5080114;28;20413;-78
2023/03/06 00:28:11;;;;;;;4.55;1.85;;;;;;;4.66;100.00;100174.13;5070425;28;20032;-78
2023/03/06 00:30:37;;;;;;;3.72;1.67;;;;;;;4.70;100.00;100175.56;5082005;28;20083;-78
2023/03/06 00:33:02;;;;;;;3.17;1.50;;;;;;;4.73;100.00;100170.09;5084310;28;20081;-78
2023/03/06 00:35:29;;;;;;;3.53;1.23;;;;;;;4.76;100.00;100162.03;5062083;28;20039;-78
2023/03/06 00:37:56;;;;;;;2.17;1.27;;;;;;;4.81;100.00;100159.09;5075163;28;20029;-78
2023/03/06 00:40:22;;;;;;;4.57;1.52;;;;;;;4.84;100.00;100161.47;5051926;28;20408;-78
2023/03/06 00:42:48;;;;;;;5.18;1.50;;;;;;;4.87;100.00;100155.16;5076837;28;20047;-78
2023/03/06 00:45:14;;;;;;;4.85;1.40;;;;;;;4.87;100.00;100158.63;5082429;28;20024;-78
2023/03/06 00:47:41;;;;;;;3.70;1.40;;;;;;;4.89;100.00;100150.66;5067101;28;20048;-78
2023/03/06 00:50:07;;;;;;;4.47;2.20;;;;;;;4.92;100.00;100140.78;5068623;28;20400;-78
2023/03/06 00:52:33;;;;;;;2.60;1.30;;;;;;;4.94;100.00;100138.88;5079789;28;20457;-78
2023/03/06 00:54:58;;;;;;;4.38;1.40;;;;;;;4.99;100.00;100142.91;5084743;28;20096;-78
2023/03/06 00:57:24;;;;;;;3.90;1.42;;;;;;;4.98;100.00;100142.13;5065568;28;20040;-78
2023/03/06 00:59:50;;;;;;;4.97;1.42;;;;;;;5.04;100.00;100135.56;5083130;28;20040;-79
2023/03/06 01:02:16;;;;;;;6.60;2.47;;;;;;;5.05;100.00;100135.44;5080978;28;20268;-78
2023/03/06 01:04:42;;;;;;;3.40;1.52;;;;;;;5.07;100.00;100128.31;5066917;28;20059;-78
2023/03/06 01:07:07;;;;;;;6.57;1.38;;;;;;;5.11;100.00;100135.94;5083285;28;20107;-78
2023/03/06 01:09:33;;;;;;;2.72;1.08;;;;;;;5.12;100.00;100127.13;5067612;28;20047;-78
2023/03/06 01:11:59;;;;;;;1.60;1.00;;;;;;;5.14;100.00;100125.22;5063937;28;20040;-78
2023/03/06 01:14:27;;;;;;;6.05;1.20;;;;;;;5.16;100.00;100118.09;5083045;28;20085;-78
2023/03/06 01:16:52;;;;;;;2.58;1.00;;;;;;;5.17;100.00;100111.88;5073095;28;20037;-78
2023/03/06 01:19:18;;;;;;;4.10;1.00;;;;;;;5.17;100.00;100104.88;5088095;28;20039;-78
2023/03/06 01:21:44;;;;;;;3.53;0.98;;;;;;;5.19;100.00;100107.38;5073815;28;20036;-78
2023/03/06 01:24:10;;;;;;;1.95;1.08;;;;;;;5.22;100.00;100110.56;5074883;28;20052;-78
2023/03/06 01:26:36;;;;;;;7.32;1.10;;;;;;;5.24;100.00;100099.97;5089994;28;20488;-78
2023/03/06 01:29:02;;;;;;;2.90;1.00;;;;;;;5.26;100.00;100099.84;5087598;28;20024;-78
2023/03/06 01:31:27;;;;;;;2.38;1.00;;;;;;;5.26;100.00;100100.69;5088345;28;20047;-78
2023/03/06 01:33:53;;;;;;;3.75;1.13;;;;;;;5.24;100.00;100097.34;5063993;28;20067;-78
2023/03/06 01:36:19;;;;;;;8.00;1.17;;;;;;;5.26;100.00;100099.84;5079229;28;20032;-78
2023/03/06 01:38:45;;;;;;;6.18;0.80;;;;;;;5.27;100.00;100089.25;5084089;28;20028;-78
2023/03/06 01:41:14;;;;;;;2.08;0.85;;;;;;;5.26;100.00;100095.47;5082547;28;20111;-78
2023/03/06 01:43:43;;;;;;;3.92;1.08;;;;;;;5.28;100.00;100090.94;5081029;28;20043;-78
2023/03/06 01:46:29;;;;;;;5.75;1.02;;;;;;;5.29;100.00;100086.50;5067462;28;20087;-78
2023/03/06 01:49:19;;;;;;;3.97;1.17;;;;;;;5.27;100.00;100081.38;5038612;28;20040;-78
2023/03/06 01:52:08;;;;;;;5.57;1.20;;;;;;;5.27;100.00;100073.53;5050129;28;20433;-78
2023/03/06 01:54:43;;;;;;;5.95;1.00;;;;;;;5.27;100.00;100073.53;5064865;28;20047;-78
2023/03/06 01:57:32;;;;;;;2.97;0.98;;;;;;;5.26;100.00;100071.88;5099546;28;20023;-78
2023/03/06 02:00:07;;;;;;;4.90;1.00;;;;;;;5.24;100.00;100068.53;5086298;28;20050;-77
2023/03/06 02:02:42;;;;;;;2.63;0.82;;;;;;;5.24;100.00;100067.72;5079203;28;20052;-78
2023/03/06 02:05:08;;;;;;;5.78;1.20;;;;;;;5.24;100.00;100062.47;5079862;28;20071;-78
2023/03/06 02:07:36;;;;;;;2.17;0.88;;;;;;;5.27;100.00;100063.06;5100420;28;20035;-78
2023/03/06 02:10:04;;;;;;;5.85;1.13;;;;;;;5.28;100.00;100056.88;5086496;28;20111;-78
2023/03/06 02:12:30;;;;;;;1.48;0.65;;;;;;;5.25;100.00;100049.25;5083049;28;20027;-78
2023/03/06 02:14:56;;;;;;;1.45;0.63;;;;;;;5.26;100.00;100044.81;5085125;28;20100;-78
2023/03/06 02:17:22;;;;;;;2.85;0.85;;;;;;;5.26;100.00;100044.81;5086102;28;20024;-78
2023/03/06 02:19:51;;;;;;;2.28;0.63;;;;;;;5.25;100.00;100044.00;5091893;28;20032;-78
2023/03/06 02:22:18;;;;;;;2.63;0.80;;;;;;;5.24;100.00;100042.31;5085768;28;20062;-78
2023/03/06 02:24:55;;;;;;;3.83;0.82;;;;;;;5.24;100.00;100037.09;5081790;28;20060;-78
2023/03/06 02:27:23;;;;;;;1.80;0.85;;;;;;;5.22;100.00;100031.97;5070160;28;20409;-78
2023/03/06 02:29:51;;;;;;;6.05;0.80;;;;;;;5.20;100.00;100033.03;5088280;28;20477;-78
2023/03/06 02:32:17;;;;;;;2.00;0.60;;;;;;;5.20;100.00;100026.03;5056666;28;20036;-78
2023/03/06 02:34:54;;;;;;;2.72;0.60;;;;;;;5.25;100.00;100019.59;5084677;28;20036;-78
2023/03/06 02:37:21;;;;;;;1.77;0.50;;;;;;;5.21;100.00;100017.22;5072721;28;20467;-78
2023/03/06 02:39:53;;;;;;;4.13;0.70;;;;;;;5.25;100.00;100014.34;5082065;28;20063;-78
2023/03/06 02:42:22;;;;;;;5.95;0.90;;;;;;;5.27;100.00;100015.06;5084763;28;20028;-78
2023/03/06 02:44:50;;;;;;;5.35;0.95;;;;;;;5.27;100.00;100005.41;5084010;28;20028;-78
2023/03/06 02:47:15;;;;;;;2.38;0.65;;;;;;;5.30;100.00;99999.09;5070582;28;20532;-78
2023/03/06 02:49:41;;;;;;;5.38;0.70;;;;;;;5.33;100.00;100006.72;5070300;28;20024;-78
2023/03/06 02:52:07;;;;;;;8.05;0.70;;;;;;;5.32;100.00;99997.16;5089016;28;20027;-78
2023/03/06 02:54:33;;;;;;;2.85;0.75;;;;;;;5.33;100.00;99991.84;5069724;28;20115;-78
2023/03/06 02:56:58;;;;;;;5.90;0.80;;;;;;;5.36;100.00;99995.16;5077357;28;20783;-77
2023/03/06 02:59:25;;;;;;;7.03;1.65;;;;;;;5.36;100.00;99982.88;5069828;28;20467;-78
2023/03/06 03:01:51;;;;;;;6.82;0.85;;;;;;;5.36;100.00;99988.13;5080182;28;20024;-77
2023/03/06 03:04:17;;;;;;;2.28;0.82;;;;;;;5.39;100.00;99979.19;5009929;28;20198;-78
2023/03/06 03:06:43;;;;;;;6.57;0.90;;;;;;;5.38;100.00;99975.75;5072192;28;20040;-78
2023/03/06 03:09:09;;;;;;;7.10;0.65;;;;;;;5.40;100.00;99981.69;5076203;28;20054;-78
2023/03/06 03:11:35;;;;;;;4.88;0.80;;;;;;;5.39;100.00;99968.69;5086997;28;20060;-78
2023/03/06 03:14:01;;;;;;;3.55;1.20;;;;;;;5.38;100.00;99972.28;5065965;28;20093;-78
2023/03/06 03:16:27;;;;;;;2.47;0.63;;;;;;;5.38;100.00;99969.66;5083593;28;20029;-78
2023/03/06 03:18:57;;;;;;;3.65;0.75;;;;;;;5.38;100.00;99967.88;5088205;28;20472;-78
2023/03/06 03:21:22;;;;;;;2.78;0.75;;;;;;;5.38;100.00;99962.66;5088939;28;20089;-78
2023/03/06 03:23:48;;;;;;;4.88;0.80;;;;;;;5.41;100.00;99958.94;5085538;28;20059;-78
2023/03/06 03:26:18;;;;;;;5.65;0.55;;;;;;;5.42;100.00;99957.97;5079930;28;20087;-78
2023/03/06 03:28:50;;;;;;;;;;;;;;;5.34;100.00;99959.44;5087680;28;20044;-78
2023/03/06 03:31:18;;;;;;;6.20;0.70;;;;;;;5.33;100.00;99944.66;5081757;28;20007;-78
2023/03/06 03:33:44;;;;;;;2.58;0.65;;;;;;;5.33;100.00;99942.03;5069656;28;20117;-78
2023/03/06 03:36:11;;;;;;;1.23;0.55;;;;;;;5.33;100.00;99928.09;5063995;28;20074;-78
2023/03/06 03:38:40;;;;;;;2.20;0.47;;;;;;;5.34;100.00;99935.00;5076830;28;20074;-78
2023/03/06 03:41:07;;;;;;;3.13;0.63;;;;;;;5.34;100.00;99935.00;5078351;28;20604;-78
2023/03/06 03:43:33;;;;;;;5.40;0.70;;;;;;;5.32;100.00;99927.25;5067522;28;20409;-78
2023/03/06 03:45:59;;;;;;;4.47;0.65;;;;;;;5.32;100.00;99924.63;5088327;28;20020;-78
2023/03/06 03:48:26;;;;;;;4.28;0.50;;;;;;;5.32;100.00;99923.78;5086488;28;20177;-78
2023/03/06 03:50:52;;;;;;;0.77;0.30;;;;;;;5.32;100.00;99919.41;5061614;28;20499;-77
2023/03/06 03:53:20;;;;;;;0.88;0.40;;;;;;;5.33;100.00;99910.59;5052550;28;20032;-78
2023/03/06 03:55:47;;;;;;;2.92;0.50;;;;;;;5.32;100.00;99908.91;5064583;28;20093;-78
2023/03/06 03:58:14;;;;;;;1.38;0.38;;;;;;;5.29;100.00;99910.94;5062648;28;20043;-78
2023/03/06 04:00:40;;;;;;;2.42;0.50;;;;;;;5.31;100.00;99909.88;5090449;28;20072;-78
2023/03/06 04:03:11;;;;;;;2.97;0.40;;;;;;;5.30;100.00;99907.38;5067141;28;20047;-78
2023/03/06 04:05:41;;;;;;;1.83;0.55;;;;;;;5.28;100.00;99899.63;5066243;28;20384;-78
2023/03/06 04:08:08;;;;;;;4.22;0.73;;;;;;;5.28;100.00;99896.19;5059137;28;20032;-78
2023/03/06 04:10:38;;;;;;;2.10;0.57;;;;;;;5.28;100.00;99897.03;5081965;28;20484;-78
2023/03/06 04:13:05;;;;;;;1.98;0.80;;;;;;;5.25;100.00;99894.66;5075885;28;20039;-78
2023/03/06 04:15:32;;;;;;;2.88;0.60;;;;;;;5.25;100.00;99897.28;5083404;28;20047;-78
2023/03/06 04:17:59;;;;;;;3.65;0.65;;;;;;;5.25;100.00;99889.41;5081500;28;20035;-78
2023/03/06 04:20:27;;;;;;;2.72;0.60;;;;;;;5.27;100.00;99889.28;5076367;28;20472;-77
2023/03/06 04:22:55;;;;;;;2.00;0.50;;;;;;;5.26;100.00;99882.34;5078759;28;20028;-78
2023/03/06 04:25:21;;;;;;;3.97;1.02;;;;;;;5.25;100.00;99886.78;5077008;28;20111;-78
2023/03/06 04:27:48;;;;;;;1.25;0.40;;;;;;;5.28;100.00;99877.84;5082853;28;20058;-78
2023/03/06 04:30:14;;;;;;;1.58;0.57;;;;;;;5.30;100.00;99875.94;5064403;28;20070;-78
2023/03/06 04:32:40;;;;;;;2.47;0.60;;;;;;;5.30;100.00;99868.88;5071529;28;20055;-78
2023/03/06 04:35:06;;;;;;;2.95;1.13;;;;;;;5.32;100.00;99868.75;5088908;28;20050;-78
2023/03/06 04:37:37;;;;;;;0.68;0.68;;;;;;;5.32;100.00;99868.75;5077707;28;20020;-78
2023/03/06 04:40:04;;;;;;;4.07;0.60;;;;;;;5.29;100.00;99862.00;5041611;28;20078;-78
2023/03/06 04:42:30;;;;;;;2.85;0.52;;;;;;;5.28;100.00;99856.88;5074146;28;20047;-78
2023/03/06 04:44:55;;;;;;;6.10;0.65;;;;;;;5.27;100.00;99855.22;5059915;28;20700;-78
2023/03/06 04:47:21;;;;;;;6.07;0.82;;;;;;;5.26;100.00;99851.75;5085295;28;20032;-77
2023/03/06 04:49:47;;;;;;;1.50;0.50;;;;;;;5.28;100.00;99851.63;5083111;28;20160;-78
2023/03/06 04:52:13;;;;;;;2.05;0.52;;;;;;;5.27;100.00;99845.56;5091450;28;20028;-78
2023/03/06 04:54:39;;;;;;;1.65;0.50;;;;;;;5.29;100.00;99851.50;5060434;28;20023;-78
2023/03/06 04:57:05;;;;;;;2.42;0.60;;;;;;;5.29;100.00;99845.44;5089985;28;20103;-77
2023/03/06 04:59:30;;;;;;;0.50;0.50;;;;;;;5.30;100.00;99840.06;5088777;28;20131;-78
2023/03/06 05:01:56;;;;;;;1.80;0.40;;;;;;;5.26;100.00;99846.53;5089307;28;20043;-78
2023/03/06 05:04:22;;;;;;;4.60;2.25;;;;;;;5.26;100.00;99846.53;5088351;28;20024;-78
2023/03/06 05:06:48;;;;;;;4.05;0.70;;;;;;;5.26;100.00;99850.91;5090497;28;20032;-78
2023/03/06 05:09:14;;;;;;;4.30;0.68;;;;;;;5.27;100.00;99844.75;5077354;28;20040;-78
2023/03/06 05:11:39;;;;;;;1.92;0.40;;;;;;;5.27;100.00;99845.56;5090112;28;20034;-78
2023/03/06 05:14:05;;;;;;;6.80;0.75;;;;;;;5.28;100.00;99844.63;5087313;28;20423;-78
2023/03/06 05:16:31;;;;;;;2.63;0.40;;;;;;;5.27;100.00;99840.31;5089089;28;20024;-78
2023/03/06 05:18:57;;;;;;;5.53;0.68;;;;;;;5.29;100.00;99834.94;5070399;28;20039;-78
2023/03/06 05:21:22;;;;;;;2.53;0.55;;;;;;;5.28;100.00;99836.75;5087698;28;20027;-78
2023/03/06 05:23:48;;;;;;;6.38;2.17;;;;;;;5.28;100.00;99828.88;5082609;28;20471;-78
2023/03/06 05:26:15;;;;;;;3.13;0.40;;;;;;;5.28;100.00;99828.88;5086660;28;20035;-78
2023/03/06 05:28:40;;;;;;;0.65;0.60;;;;;;;5.27;100.00;99826.41;5085752;28;20431;-78
2023/03/06 05:31:07;;;;;;;0.88;0.85;;;;;;;5.27;100.00;99826.41;5071050;28;20036;-78
2023/03/06 05:33:34;;;;;;;5.20;0.57;;;;;;;5.30;100.00;99820.91;5089450;28;20425;-78
2023/03/06 05:36:01;;;;;;;5.00;0.80;;;;;;;5.29;100.00;99814.81;5069794;28;20433;-78
2023/03/06 05:38:27;;;;;;;1.48;0.47;;;;;;;5.30;100.00;99820.91;5088742;28;20148;-78
2023/03/06 05:40:53;;;;;;;5.68;0.90;;;;;;;5.28;100.00;99818.41;5088700;28;20063;-78
2023/03/06 05:43:19;;;;;;;3.15;0.82;;;;;;;5.28;100.00;99818.41;5088787;28;20104;-78
2023/03/06 05:45:45;;;;;;;1.67;0.55;;;;;;;5.28;100.00;99815.78;5093683;28;20084;-78
2023/03/06 05:48:12;;;;;;;1.95;0.60;;;;;;;5.27;100.00;99814.09;5086353;28;20023;-78
2023/03/06 05:50:38;;;;;;;3.75;0.82;;;;;;;5.26;100.00;99809.00;5067561;28;20042;-78
2023/03/06 05:53:04;;;;;;;7.18;0.90;;;;;;;5.25;100.00;99808.19;5081271;28;20477;-78
2023/03/06 05:55:30;;;;;;;6.40;1.33;;;;;;;5.26;100.00;99804.59;5058669;28;20024;-78
2023/03/06 05:57:56;;;;;;;4.57;0.40;;;;;;;5.26;100.00;99796.72;5067735;28;20138;-78
2023/03/06 06:00:22;;;;;;;4.82;1.20;;;;;;;5.27;100.00;99800.19;5089731;28;20039;-78
2023/03/06 06:02:48;;;;;;;3.22;0.70;;;;;;;5.25;100.00;99792.47;5080401;28;20044;-78
2023/03/06 06:05:14;;;;;;;4.25;0.50;;;;;;;5.29;100.00;99790.41;5090419;28;20035;-78
2023/03/06 06:07:41;;;;;;;0.65;0.25;;;;;;;5.30;100.00;99789.47;5088533;28;20028;-78
2023/03/06 06:10:08;;;;;;;1.95;0.40;;;;;;;5.34;100.00;99788.25;5086792;28;20519;-78
2023/03/06 06:12:34;;;;;;;5.15;0.52;;;;;;;5.34;100.00;99791.69;5066701;28;20024;-78
2023/03/06 06:14:59;;;;;;;2.25;0.50;;;;;;;5.38;100.00;99794.06;5089714;28;20028;-78
2023/03/06 06:17:25;;;;;;;2.38;0.73;;;;;;;5.36;100.00;99785.50;5086716;28;20092;-78
2023/03/06 06:19:51;;;;;;;0.95;0.38;;;;;;;5.36;100.00;99788.94;5038300;28;20072;-78
2023/03/06 06:22:17;;;;;;;6.55;1.40;;;;;;;5.40;100.00;99795.59;5085634;28;20032;-78
2023/03/06 06:24:42;;;;;;;1.30;0.30;;;;;;;5.37;100.00;99787.16;5088794;28;20036;-78
2023/03/06 06:27:08;;;;;;;3.28;0.73;;;;;;;5.38;100.00;99786.19;5067460;28;20032;-78
2023/03/06 06:29:34;;;;;;;1.98;0.35;;;;;;;5.35;100.00;99779.44;5086152;28;20060;-78
2023/03/06 06:32:00;;;;;;;3.25;0.45;;;;;;;5.36;100.00;99788.94;5083519;28;20051;-78
2023/03/06 06:34:27;;;;;;;3.03;0.50;;;;;;;5.42;100.00;99788.44;5088281;28;20368;-78
2023/03/06 06:36:53;;;;;;;6.20;0.57;;;;;;;5.42;100.00;99783.19;5101058;28;20030;-77
2023/03/06 06:39:21;;;;;;;3.92;0.50;;;;;;;5.43;100.00;99777.00;5085024;28;20036;-78
2023/03/06 06:41:49;;;;;;;6.35;0.82;;;;;;;5.44;100.00;99776.06;5085248;28;20056;-78
2023/03/06 06:44:16;;;;;;;4.82;0.70;;;;;;;5.46;100.00;99773.31;5078895;28;20493;-78
2023/03/06 06:46:44;;;;;;;1.00;0.40;;;;;;;5.45;100.00;99771.63;5085185;28;20048;-78
2023/03/06 06:49:13;;;;;;;2.65;0.70;;;;;;;5.46;100.00;99768.88;5070243;28;20135;-77
2023/03/06 06:51:40;;;;;;;3.13;0.40;;;;;;;5.49;100.00;99766.97;5058893;28;20036;-78
2023/03/06 06:54:06;;;;;;;5.32;0.52;;;;;;;5.51;100.00;99765.88;5086299;28;20103;-78
2023/03/06 06:56:32;;;;;;;5.70;0.60;;;;;;;5.50;100.00;99764.22;5086220;28;20376;-78
2023/03/06 06:59:00;;;;;;;2.97;0.38;;;;;;;5.49;100.00;99759.09;5076956;28;20032;-78
2023/03/06 07:01:27;;;;;;;3.47;0.93;;;;;;;5.45;100.00;99756.72;5067096;28;20036;-78
2023/03/06 07:03:53;;;;;;;4.43;0.52;;;;;;;5.45;100.00;99754.09;5090680;28;20552;-78
2023/03/06 07:06:19;;;;;;;4.38;0.40;;;;;;;5.44;100.00;99754.25;5091250;28;20036;-78
2023/03/06 07:08:45;;;;;;;5.40;0.50;;;;;;;5.41;100.00;99757.97;5092623;28;20023;-78
2023/03/06 07:11:15;;;;;;;5.97;0.73;;;;;;;5.42;100.00;99751.75;5086792;28;20062;-78
2023/03/06 07:13:44;;;;;;;4.30;0.70;;;;;;;5.44;100.00;99756.84;5086297;28;20036;-78
2023/03/06 07:16:09;;;;;;;2.90;0.50;;;;;;;5.45;100.00;99755.91;5074507;28;20511;-78
2023/03/06 07:18:35;;;;;;;3.92;0.52;;;;;;;5.50;100.00;99755.50;5088464;28;20029;-78
2023/03/06 07:21:01;;;;;;;5.25;0.60;;;;;;;5.53;100.00;99748.22;5082375;28;20464;-78
2023/03/06 07:23:27;;;;;;;1.60;0.50;;;;;;;5.58;100.00;99747.84;5091558;28;20028;-78
2023/03/06 07:25:53;;;;;;;2.80;0.88;;;;;;;5.59;100.00;99746.88;5074066;28;20030;-78
2023/03/06 07:28:20;;;;;;;2.28;0.70;;;;;;;5.59;100.00;99737.22;5082771;28;20036;-78
2023/03/06 07:30:46;;;;;;;4.18;0.75;;;;;;;5.57;100.00;99741.75;5074321;28;20031;-77
2023/03/06 07:33:13;;;;;;;2.65;0.68;;;;;;;5.54;100.00;99744.63;5093553;28;20034;-78
2023/03/06 07:35:42;;;;;;;4.78;1.05;;;;;;;5.54;100.00;99746.44;5064509;28;20055;-78
2023/03/06 07:38:08;;;;;;;2.72;0.82;;;;;;;5.53;100.00;99737.75;5091516;28;20024;-78
2023/03/06 07:40:34;;;;;;;3.53;0.90;;;;;;;5.52;100.00;99735.25;5070628;28;20063;-78
2023/03/06 07:43:00;;;;;;;5.13;0.57;;;;;;;5.53;100.00;99729.03;5093909;28;20056;-78
2023/03/06 07:45:34;;;;;;;9.98;1.05;;;;;;;5.54;100.00;99734.16;5082127;28;20028;-77
2023/03/06 07:48:00;;;;;;;6.63;2.03;;;;;;;5.55;100.00;99727.13;5067378;28;20023;-78
2023/03/06 07:50:27;;;;;;;4.25;0.57;;;;;;;5.55;100.00;99722.72;5079121;28;20039;-78
2023/03/06 07:52:53;;;;;;;3.42;0.73;;;;;;;5.57;100.00;99727.84;5066638;28;20024;-78
2023/03/06 07:55:19;;;;;;;5.82;2.40;;;;;;;5.57;100.00;99722.59;5086464;28;20044;-78
2023/03/06 07:57:45;;;;;;;1.70;0.70;;;;;;;5.61;100.00;99717.91;5083766;28;20027;-78
2023/03/06 08:00:14;;;;;;;2.95;1.08;;;;;;;5.67;100.00;99712.16;5085727;28;20030;-78
2023/03/06 08:02:41;;;;;;;5.55;0.77;;;;;;;5.67;100.00;99709.53;5103822;28;20093;-78
2023/03/06 08:05:10;;;;;;;4.57;1.35;;;;;;;5.70;100.00;99714.53;5091850;28;20063;-78
2023/03/06 08:07:36;;;;;;;1.55;0.50;;;;;;;5.71;100.00;99718.78;5092015;28;20133;-77
2023/03/06 08:10:03;;;;;;;1.08;0.50;;;;;;;5.75;100.00;99716.75;5078425;28;20036;-78
2023/03/06 08:12:28;;;;;;;5.07;0.50;;;;;;;5.74;100.00;99710.66;5071516;28;20387;-78
2023/03/06 08:14:54;;;;;;;1.05;0.60;;;;;;;5.75;100.00;99709.69;5085483;28;20035;-78
2023/03/06 08:17:20;;;;;;;0.40;0.38;;;;;;;5.73;100.00;99706.41;5086172;28;20030;-78
2023/03/06 08:19:46;;;;;;;4.07;0.73;;;;;;;5.73;100.00;99708.19;5089474;28;20020;-77
2023/03/06 08:22:12;;;;;;;2.50;0.73;;;;;;;5.68;100.00;99698.91;5089394;28;20024;-78
2023/03/06 08:24:38;;;;;;;5.93;2.63;;;;;;;5.65;100.00;99708.81;5092634;28;21610;-77
2023/03/06 08:27:04;;;;;;;7.63;2.00;;;;;;;5.62;100.00;99703.84;5076913;28;20039;-78
2023/03/06 08:29:30;;;;;;;3.30;0.80;;;;;;;5.62;100.00;99707.31;5088786;28;20098;-78
2023/03/06 08:31:56;;;;;;;1.45;0.47;;;;;;;5.64;100.00;99702.75;5072972;28;20114;-78
2023/03/06 08:34:26;;;;;;;2.40;1.00;;;;;;;5.66;100.00;99703.44;5087759;28;20488;-78
2023/03/06 08:36:52;;;;;;;6.53;0.73;;;;;;;5.67;100.00;99710.34;5079883;28;20020;-78
2023/03/06 08:39:18;;;;;;;2.67;0.65;;;;;;;5.69;100.00;99704.97;5070208;28;20032;-78
2023/03/06 08:41:43;;;;;;;2.97;0.60;;;;;;;5.73;100.00;99706.41;5065635;28;20089;-78
2023/03/06 08:44:09;;;;;;;5.38;1.10;;;;;;;5.78;100.00;99703.38;5084273;28;20028;-78
2023/03/06 08:46:36;;;;;;;4.15;0.60;;;;;;;5.80;100.00;99702.28;5075914;28;20516;-78
2023/03/06 08:49:02;;;;;;;6.68;0.65;;;;;;;5.78;100.00;99700.75;5068437;28;20051;-77
2023/03/06 08:51:28;;;;;;;7.07;0.80;;;;;;;5.74;100.00;99697.56;5080766;28;20081;-78
2023/03/06 08:53:55;;;;;;;5.40;0.70;;;;;;;5.81;100.00;99698.66;5080647;28;20469;-78
2023/03/06 08:56:26;;;;;;;1.60;0.40;;;;;;;5.88;100.00;99691.13;5092564;28;20468;-77
2023/03/06 08:58:53;;;;;;;3.20;0.43;;;;;;;5.89;100.00;99702.44;5074230;28;20036;-78
2023/03/06 09:01:24;;;;;;;6.97;0.70;;;;;;;5.94;100.00;99697.66;5083923;28;20154;-78
2023/03/06 09:03:53;;;;;;;3.75;1.80;;;;;;;5.98;100.00;99693.78;5089547;28;20123;-78
2023/03/06 09:06:19;;;;;;;2.50;0.43;;;;;;;5.99;100.00;99694.63;5061209;28;20544;-78
2023/03/06 09:08:45;;;;;;;3.15;0.50;;;;;;;6.01;100.00;99697.91;5091374;28;20052;-78
2023/03/06 09:11:12;;;;;;;1.98;0.70;;;;;;;6.05;100.00;99692.31;5087505;28;20121;-78
2023/03/06 09:13:38;;;;;;;6.45;0.68;;;;;;;6.06;100.00;99693.13;5071528;28;20097;-78
2023/03/06 09:16:04;;;;;;;2.78;0.93;;;;;;;6.08;100.00;99704.34;5084265;28;20475;-78
2023/03/06 09:18:30;;;;;;;2.63;0.57;;;;;;;6.09;100.00;99695.50;5058526;28;20031;-78
2023/03/06 09:20:56;;;;;;;3.58;0.60;;;;;;;6.08;100.00;99693.84;5088964;28;20376;-78
2023/03/06 09:23:22;;;;;;;9.13;0.90;;;;;;;6.12;100.00;99697.84;5084833;28;20029;-78
2023/03/06 09:25:55;;;;;;;1.95;0.40;;;;;;;6.18;100.00;99693.88;5083403;28;20028;-78
2023/03/06 09:28:22;;;;;;;3.95;0.50;;;;;;;6.20;100.00;99697.19;5084126;28;20040;-78
2023/03/06 09:30:48;;;;;;;7.35;0.90;;;;;;;6.23;100.00;99696.91;5084084;28;20039;-78
2023/03/06 09:33:14;;;;;;;6.45;0.80;;;;;;;6.22;100.00;99694.41;5071797;28;20036;-78
2023/03/06 09:35:48;;;;;;;1.95;0.60;;;;;;;6.24;100.00;99692.50;5083407;28;20030;-78
2023/03/06 09:38:14;;;;;;;3.58;0.52;;;;;;;6.20;100.00;99686.69;5054514;28;20059;-78
2023/03/06 09:40:49;;;;;;;2.63;0.60;;;;;;;6.23;100.00;99685.59;5056455;28;20082;-78
2023/03/06 09:43:27;;;;;;;9.38;0.98;;;;;;;6.28;100.00;99683.38;5055227;28;20043;-78
2023/03/06 09:45:53;;;;;;;4.90;1.20;;;;;;;6.25;100.00;99673.16;5039281;28;20113;-78
2023/03/06 09:48:27;;;;;;;5.35;0.68;;;;;;;6.29;100.00;99669.31;5081992;28;20034;-78
2023/03/06 09:51:09;;;;;;;2.22;1.27;;;;;;;6.37;100.00;99669.44;5066067;28;20384;-78
2023/03/06 09:53:57;;;;;;;3.67;0.40;;;;;;;6.41;100.00;99668.22;5078460;28;20040;-78
2023/03/06 09:56:29;;;;;;;4.82;0.40;;;;;;;6.44;100.00;99656.59;5063855;28;20066;-78
2023/03/06 09:59:06;;;;;;;4.50;0.35;;;;;;;6.44;100.00;99648.72;5067222;28;20028;-78
2023/03/06 10:01:40;;;;;;;7.07;0.70;;;;;;;6.49;100.00;99648.31;5075545;28;20502;-78
2023/03/06 10:04:18;;;;;;;2.38;0.30;;;;;;;6.55;100.00;99651.22;5076328;28;20050;-78
2023/03/06 10:06:51;;;;;;;7.45;1.30;;;;;;;6.64;100.00;99648.75;5080034;28;20695;-78
2023/03/06 10:09:26;;;;;;;3.10;0.38;;;;;;;6.79;100.00;99638.63;5082327;28;20029;-78
2023/03/06 10:11:57;;;;;;;3.78;1.00;;;;;;;6.80;100.00;99637.69;5098084;28;20418;-78
2023/03/06 10:14:36;;;;;;;6.28;0.50;;;;;;;6.79;100.00;99630.75;5092705;28;20108;-78
2023/03/06 10:17:04;;;;;;;4.00;0.20;;;;;;;6.81;100.00;99624.41;5094478;28;20063;-78
2023/03/06 10:19:40;;;;;;;2.95;0.32;;;;;;;6.88;100.00;99629.09;5089206;28;20096;-78
2023/03/06 10:22:23;;;;;;;3.40;0.40;;;;;;;6.94;100.00;99628.53;5060026;28;20462;-77
2023/03/06 10:25:02;;;;;;;1.85;0.30;;;;;;;6.95;100.00;99632.81;5079816;28;20035;-78
2023/03/06 10:27:48;;;;;;;7.70;0.30;;;;;;;7.02;100.00;99630.47;5085938;28;20043;-78
2023/03/06 10:30:26;;;;;;;6.65;2.33;;;;;;;6.96;100.00;99626.59;5083367;28;20731;-78
2023/03/06 10:32:57;;;;;;;4.43;0.60;;;;;;;6.92;100.00;99628.69;5077689;28;20024;-78
2023/03/06 10:35:30;;;;;;;0.32;0.32;;;;;;;6.89;100.00;99630.75;5088089;28;20107;-78
2023/03/06 10:38:12;;;;;;;12.27;2.45;;;;;;;6.89;100.00;99628.13;5056114;28;20613;-77
2023/03/06 10:41:19;;;;;;;5.35;0.40;;;;;;;6.93;100.00;99613.72;5091124;28;20050;-78
2023/03/06 10:44:03;;;;;;;;;;;;;;;7.01;100.00;99613.03;5090712;28;20024;-78
2023/03/06 10:46:33;;;;;;;1.58;0.30;;;;;;;7.24;100.00;99617.94;5091009;28;19912;-78
2023/03/06 10:49:02;;;;;;;2.00;0.30;;;;;;;7.31;100.00;99621.69;5083026;28;20028;-77
2023/03/06 10:51:29;;;;;;;0.75;0.30;;;;;;;7.19;100.00;99615.75;5088490;28;20028;-78
2023/03/06 10:54:00;;;;;;;2.95;0.40;;;;;;;7.23;100.00;99611.06;5092254;28;20032;-78
2023/03/06 10:56:39;;;;;;;2.67;0.28;;;;;;;7.20;100.00;99620.03;5092109;28;20027;-77
2023/03/06 10:59:07;;;;;;;3.22;0.35;;;;;;;7.20;100.00;99615.59;5093091;28;20103;-78
2023/03/06 11:01:34;;;;;;;4.03;0.30;;;;;;;7.24;100.00;99613.53;5067996;28;20034;-77
2023/03/06 11:04:29;;;;;;;4.07;0.50;;;;;;;7.24;100.00;99615.31;5097076;28;20035;-77
2023/03/06 11:07:18;;;;;;;3.38;0.75;;;;;;;7.19;100.00;99605.25;5075055;28;20095;-78
2023/03/06 11:09:56;;;;;;;3.85;0.40;;;;;;;7.24;100.00;99603.03;5090210;28;20031;-77
2023/03/06 11:12:31;;;;;;;3.67;0.30;;;;;;;7.19;100.00;99607.88;5090448;28;20032;-77
2023/03/06 11:15:06;;;;;;;3.17;0.20;;;;;;;7.18;100.00;99595.72;5068411;28;20039;-78
2023/03/06 11:17:34;;;;;;;1.05;0.10;;;;;;;7.16;100.00;99590.59;5071473;28;20431;-77
2023/03/06 11:20:18;;;;;;;1.00;0.20;;;;;;;7.20;100.00;99597.22;5091234;28;20024;-77
2023/03/06 11:22:53;;;;;;;1.77;0.20;;;;;;;7.26;100.00;99585.28;5084166;28;20067;-78
2023/03/06 11:25:21;;;;;;;2.22;0.20;;;;;;;7.28;100.00;99593.03;5080738;28;20063;-78
2023/03/06 11:27:56;;;;;;;2.42;0.50;;;;;;;7.41;100.00;99587.44;5023842;28;20024;-78
2023/03/06 11:30:33;;;;;;;2.38;0.47;;;;;;;7.53;100.00;99581.03;5075268;28;20024;-77
2023/03/06 11:33:07;;;;;;;2.75;0.30;;;;;;;7.60;100.00;99569.94;5091805;28;20106;-77
2023/03/06 11:35:49;;;;;;;0.82;0.28;;;;;;;7.65;100.00;99565.06;5070798;28;20039;-77
2023/03/06 11:38:27;;;;;;;1.98;0.38;;;;;;;7.72;100.00;99575.81;5087471;28;20040;-77